Newtownstewart, United Kingdom
Current Conditions -  °F | °C
As of 5:20 AM on Tuesday 21 Oct 2014 (Local Time) from EGAA Reporting Station
Broken Clouds Broken Clouds  
Wind Chill: 40°   Ceiling: 4800
Heat Index: 48°   Visibility: 6mi
Dew Point: 43°   Wind: 26mph
Humidity: 82%   Direction: 270°W
Pressure: 29.35"   Gusts: NA
Location:  54.72°N, 7.38°W
Report Text: EGAA 210420Z 27023KT 9999 FEW027 SCT033 BKN048 09/06 Q0994
Loading
Personal Weather Stations






























Interactive Weather Map
Tropical Storm Tracking
New forecast layout! Learn more

10-Day Weather Forecast

Advertisements
Track Severe Weather on mobile